KTMA/TMA METAR and TAF weather

Enter ICAO airport designator
Station Type Date Time Source
KTMA METAR 2021/09/24 05:15 UTC NOAA

KTMA 240515Z AUTO 00000KT 10SM CLR 16/14 A3002 RMK AO2 T01550137


Station Type Date Time Source
KTMA Decoded METAR 2021/09/24 05:15 UTC NOAA

Station name not available
Sep 24, 2021 - 01:15 AM EDT / 2021.09.24 0515 UTC
Wind: Calm:0
Visibility: 10 mile(s):0
Sky conditions: clear
Temperature: 59.9 F (15.5 C)
Dew Point: 56.7 F (13.7 C)
Relative Humidity: 89%
Pressure (altimeter): 30.02 in. Hg (1016 hPa)
ob: KTMA 240515Z AUTO 00000KT 10SM CLR 16/14 A3002 RMK AO2 T01550137
cycle: 5

Station Type Date Time Source
KTMA TAF UTC NOAA

Error!

Example: see airport list